aviador You're here:

YWLM Decoded Metar

WILLIAMTOWN ARP in _UNIDENTIFIED
Report Time2017-11-23 22:00:00
UTC Time2017-11-23 22:15:40
Flight Rules vfr VFR
Wind330° at 03 kt
W.Decomp.*RWY 30: 2.9 kt HW 0.9 kt RCW
W.Rank330° ranks 9
Current wind is below 330° avg. (6.3)
Visibility9999 m
Phenomena:N/A
Clouds:N/A
Expected CloudBase > 2,400 ft AGL from Temp-Dew spread
CeilingNone
Temp22°C (ISA +7)
Dew Point16°C (69% RH)
QNH1017 hPa
Density Alt961 ft
Elevation30 ft
Report Wrong Elevation
Raw Report
YWLM 232200Z 33003KT CAVOK 22/16 Q1017 FM0000 08015KT CAVOK=

Extra information for YWLM:More info

Metar Taf Metar & Taf Last 4 Metars F.Rules Stats Wind Profile Meteogram Temp Stats Airport Information Weather charts Add Link Nearby VenuesMetar ALERT Operation Metar Decoded Social comments